Time;durP1;ratioP1;P1;durP2;ratioP2;P2;SDS_P1;SDS_P2;PMS_P1;PMS_P2;Temp;Humidity;BMP_temperature;BMP_pressure;BME280_temperature;BME280_humidity;BME280_pressure;Samples;Min_cycle;Max_cycle;Signal;HPM_P1;HPM_P2
2023/08/24 00:00:54;;;;;;;6.72;4.30;;;;;;;;;;5046862;28;21110;-70
2023/08/24 00:03:21;;;;;;;6.75;5.05;;;;;;;;;;5083061;28;20387;-70
2023/08/24 00:05:47;;;;;;;8.32;5.78;;;;;;;;;;5080905;28;20016;-69
2023/08/24 00:08:12;;;;;;;7.38;5.28;;;;;;;;;;5079589;28;20021;-70
2023/08/24 00:10:37;;;;;;;7.13;5.70;;;;;;;;;;5080621;28;20024;-70
2023/08/24 00:13:03;;;;;;;9.18;7.63;;;;;;;;;;5080198;28;20281;-70
2023/08/24 00:15:29;;;;;;;14.60;8.00;;;;;;;;;;5080606;28;20021;-70
2023/08/24 00:17:54;;;;;;;14.20;10.32;;;;;;;;;;5080122;28;20106;-70
2023/08/24 00:20:20;;;;;;;11.30;9.57;;;;;;;;;;5081400;28;20108;-70
2023/08/24 00:22:45;;;;;;;12.80;9.52;;;;;;;;;;5080247;28;20270;-70
2023/08/24 00:25:10;;;;;;;13.02;9.55;;;;;;;;;;5080827;28;20539;-70
2023/08/24 00:27:36;;;;;;;11.25;9.55;;;;;;;;;;5080723;28;20189;-70
2023/08/24 00:30:06;;;;;;;9.70;8.27;;;;;;;;;;5082977;28;20020;-70
2023/08/24 00:32:33;;;;;;;10.02;8.52;;;;;;;;;;5081029;28;20016;-70
2023/08/24 00:34:58;;;;;;;10.82;8.57;;;;;;;;;;5083938;28;20520;-70
2023/08/24 00:37:23;;;;;;;11.43;7.85;;;;;;;;;;5076923;28;20019;-70
2023/08/24 00:39:48;;;;;;;10.43;8.50;;;;;;;;;;5071074;28;20031;-70
2023/08/24 00:42:15;;;;;;;11.20;8.50;;;;;;;;;;5076406;28;20070;-70
2023/08/24 00:44:40;;;;;;;8.70;7.80;;;;;;;;;;5086392;28;20293;-68
2023/08/24 00:47:06;;;;;;;9.48;7.88;;;;;;;;;;5094125;28;20443;-68
2023/08/24 00:49:31;;;;;;;9.63;8.25;;;;;;;;;;5083328;28;20040;-69
2023/08/24 00:51:57;;;;;;;9.43;7.95;;;;;;;;;;5076488;28;20017;-69
2023/08/24 00:54:22;;;;;;;11.45;7.95;;;;;;;;;;5053799;28;20035;-70
2023/08/24 00:56:47;;;;;;;9.50;7.57;;;;;;;;;;5046016;28;20945;-69
2023/08/24 00:59:13;;;;;;;9.25;7.38;;;;;;;;;;5043099;28;20032;-69
2023/08/24 01:01:39;;;;;;;7.40;6.38;;;;;;;;;;5045437;28;20082;-70
2023/08/24 01:04:05;;;;;;;9.63;7.07;;;;;;;;;;5034029;28;20020;-70
2023/08/24 01:06:30;;;;;;;7.60;6.43;;;;;;;;;;5047317;28;20055;-69
2023/08/24 01:08:55;;;;;;;8.50;6.83;;;;;;;;;;5044559;28;20268;-69
2023/08/24 01:11:27;;;;;;;11.13;7.28;;;;;;;;;;5041443;28;20290;-70
2023/08/24 01:13:59;;;;;;;9.48;6.78;;;;;;;;;;5041120;28;20040;-70
2023/08/24 01:16:29;;;;;;;14.32;6.55;;;;;;;;;;5032041;28;21047;-71
2023/08/24 01:18:59;;;;;;;7.93;6.20;;;;;;;;;;5040486;28;20074;-70
2023/08/24 01:21:25;;;;;;;9.88;6.75;;;;;;;;;;5028426;28;20028;-70
2023/08/24 01:24:03;;;;;;;7.50;6.32;;;;;;;;;;5041894;28;20085;-70
2023/08/24 01:26:29;;;;;;;12.23;6.75;;;;;;;;;;5019233;28;20091;-70
2023/08/24 01:28:54;;;;;;;7.50;6.15;;;;;;;;;;5076570;28;20474;-67
2023/08/24 01:31:19;;;;;;;7.95;6.57;;;;;;;;;;5092896;28;20028;-67
2023/08/24 01:33:45;;;;;;;10.60;6.00;;;;;;;;;;5090109;28;20092;-67
2023/08/24 01:36:11;;;;;;;8.52;6.47;;;;;;;;;;5093814;28;20278;-68
2023/08/24 01:38:37;;;;;;;8.63;5.97;;;;;;;;;;5089707;28;20850;-67
2023/08/24 01:41:09;;;;;;;11.73;6.93;;;;;;;;;;5091744;28;20035;-67
2023/08/24 01:43:36;;;;;;;11.02;6.88;;;;;;;;;;5075379;28;20027;-68
2023/08/24 01:46:05;;;;;;;9.75;6.95;;;;;;;;;;5086036;28;20020;-68
2023/08/24 01:48:31;;;;;;;9.38;6.47;;;;;;;;;;5093334;28;20114;-68
2023/08/24 01:50:57;;;;;;;7.15;5.95;;;;;;;;;;5093587;28;20075;-68
2023/08/24 01:53:22;;;;;;;8.15;5.80;;;;;;;;;;5091997;28;20058;-68
2023/08/24 01:55:47;;;;;;;9.00;6.27;;;;;;;;;;5090531;28;20016;-68
2023/08/24 01:58:12;;;;;;;8.50;5.10;;;;;;;;;;5089616;28;20266;-68
2023/08/24 02:00:38;;;;;;;7.83;6.20;;;;;;;;;;5091692;28;20816;-69
2023/08/24 02:03:03;;;;;;;8.43;6.23;;;;;;;;;;5087523;28;20686;-68
2023/08/24 02:05:29;;;;;;;9.52;5.47;;;;;;;;;;5083509;28;20254;-68
2023/08/24 02:07:54;;;;;;;7.68;6.28;;;;;;;;;;5086517;28;20138;-68
2023/08/24 02:10:19;;;;;;;7.90;5.90;;;;;;;;;;5083258;28;20040;-68
2023/08/24 02:12:44;;;;;;;7.43;6.03;;;;;;;;;;5089523;28;20105;-68
2023/08/24 02:15:10;;;;;;;6.93;5.70;;;;;;;;;;5093660;28;20270;-68
2023/08/24 02:17:35;;;;;;;8.47;6.30;;;;;;;;;;5089458;28;20761;-68
2023/08/24 02:20:00;;;;;;;7.50;5.53;;;;;;;;;;5091763;28;20747;-68
2023/08/24 02:22:25;;;;;;;9.43;6.15;;;;;;;;;;5089141;28;20786;-68
2023/08/24 02:24:51;;;;;;;8.43;5.63;;;;;;;;;;5091131;28;20027;-68
2023/08/24 02:27:16;;;;;;;8.77;5.28;;;;;;;;;;5089608;28;20446;-68
2023/08/24 02:29:41;;;;;;;9.90;6.53;;;;;;;;;;5091505;28;20085;-68
2023/08/24 02:32:06;;;;;;;6.10;5.20;;;;;;;;;;5086825;28;20099;-68
2023/08/24 02:34:32;;;;;;;11.43;5.93;;;;;;;;;;5084394;28;20098;-68
2023/08/24 02:36:57;;;;;;;9.43;6.27;;;;;;;;;;5087392;28;20279;-68
2023/08/24 02:39:22;;;;;;;8.35;6.28;;;;;;;;;;5090058;28;20277;-68
2023/08/24 02:41:47;;;;;;;9.85;6.55;;;;;;;;;;5087128;28;20108;-68
2023/08/24 02:44:13;;;;;;;7.05;5.07;;;;;;;;;;5090474;28;20046;-68
2023/08/24 02:46:38;;;;;;;7.83;5.67;;;;;;;;;;5086625;28;20059;-68
2023/08/24 02:49:04;;;;;;;8.50;6.03;;;;;;;;;;5089055;28;20269;-68
2023/08/24 02:51:31;;;;;;;10.57;6.13;;;;;;;;;;5086494;28;20028;-68
2023/08/24 02:53:56;;;;;;;6.28;5.18;;;;;;;;;;5090233;28;20361;-69
2023/08/24 02:56:21;;;;;;;8.52;5.40;;;;;;;;;;5087143;28;20108;-68
2023/08/24 02:58:46;;;;;;;7.47;5.47;;;;;;;;;;5089217;28;20119;-68
2023/08/24 03:01:12;;;;;;;5.15;4.60;;;;;;;;;;5075324;28;20329;-68
2023/08/24 03:03:37;;;;;;;6.40;5.00;;;;;;;;;;5088668;28;20031;-68
2023/08/24 03:06:03;;;;;;;6.57;4.82;;;;;;;;;;5086725;28;20408;-69
2023/08/24 03:08:30;;;;;;;6.13;5.30;;;;;;;;;;5088725;28;20043;-69
2023/08/24 03:10:55;;;;;;;9.77;5.68;;;;;;;;;;5073350;28;20032;-69
2023/08/24 03:13:20;;;;;;;7.47;5.68;;;;;;;;;;5072487;28;20155;-69
2023/08/24 03:15:45;;;;;;;7.38;5.90;;;;;;;;;;5072693;28;20028;-69
2023/08/24 03:18:15;;;;;;;8.07;6.68;;;;;;;;;;5079062;28;20028;-69
2023/08/24 03:20:40;;;;;;;10.85;8.02;;;;;;;;;;5075316;28;20021;-69
2023/08/24 03:23:06;;;;;;;12.20;9.35;;;;;;;;;;5082841;28;20444;-69
2023/08/24 03:25:35;;;;;;;16.92;11.07;;;;;;;;;;5089127;28;20020;-68
2023/08/24 03:28:01;;;;;;;15.10;10.80;;;;;;;;;;5072690;28;20050;-68
2023/08/24 03:30:27;;;;;;;12.95;11.57;;;;;;;;;;5055464;28;20039;-68
2023/08/24 03:32:52;;;;;;;13.67;12.17;;;;;;;;;;5046851;28;20031;-68
2023/08/24 03:35:17;;;;;;;17.23;12.13;;;;;;;;;;5032497;28;20271;-68
2023/08/24 03:37:42;;;;;;;18.48;13.05;;;;;;;;;;5028503;28;20333;-68
2023/08/24 03:40:08;;;;;;;15.27;13.67;;;;;;;;;;5060184;28;20367;-68
2023/08/24 03:42:33;;;;;;;15.57;12.98;;;;;;;;;;5073676;28;20262;-69
2023/08/24 03:45:01;;;;;;;14.63;13.17;;;;;;;;;;5079000;28;20016;-68
2023/08/24 03:47:27;;;;;;;17.63;13.30;;;;;;;;;;5091903;28;20274;-68
2023/08/24 03:49:52;;;;;;;16.27;14.10;;;;;;;;;;5059379;28;20041;-68
2023/08/24 03:52:17;;;;;;;14.48;12.98;;;;;;;;;;5034467;28;20286;-68
2023/08/24 03:54:42;;;;;;;14.93;13.43;;;;;;;;;;5050208;28;20094;-69
2023/08/24 03:57:08;;;;;;;15.00;12.60;;;;;;;;;;5079513;28;20297;-68
2023/08/24 03:59:33;;;;;;;14.43;12.55;;;;;;;;;;5078875;28;20353;-69
2023/08/24 04:02:01;;;;;;;14.23;12.65;;;;;;;;;;5057535;28;20020;-69
2023/08/24 04:04:27;;;;;;;14.00;12.60;;;;;;;;;;5072386;28;20040;-70
2023/08/24 04:06:52;;;;;;;14.25;12.85;;;;;;;;;;5072026;28;20025;-69
2023/08/24 04:09:17;;;;;;;14.27;12.80;;;;;;;;;;5083340;28;20021;-69
2023/08/24 04:11:43;;;;;;;15.10;13.40;;;;;;;;;;5084562;28;20081;-70
2023/08/24 04:14:08;;;;;;;15.00;13.50;;;;;;;;;;5086316;28;20323;-69
2023/08/24 04:16:33;;;;;;;14.60;13.03;;;;;;;;;;5082745;28;20274;-69
2023/08/24 04:18:58;;;;;;;14.67;13.17;;;;;;;;;;5089681;28;20266;-69
2023/08/24 04:21:23;;;;;;;14.37;12.87;;;;;;;;;;5077136;28;20271;-69
2023/08/24 04:23:49;;;;;;;17.20;13.18;;;;;;;;;;5087915;28;20288;-68
2023/08/24 04:26:14;;;;;;;14.80;13.32;;;;;;;;;;5083108;28;20036;-69
2023/08/24 04:28:39;;;;;;;14.00;11.77;;;;;;;;;;5086549;28;20103;-71
2023/08/24 04:31:05;;;;;;;13.70;12.30;;;;;;;;;;5083860;28;20047;-70
2023/08/24 04:33:30;;;;;;;12.07;10.70;;;;;;;;;;5089595;28;20547;-69
2023/08/24 04:35:56;;;;;;;12.82;11.40;;;;;;;;;;5083195;28;20033;-70
2023/08/24 04:38:21;;;;;;;12.20;10.93;;;;;;;;;;5087739;28;20062;-71
2023/08/24 04:40:46;;;;;;;13.63;10.17;;;;;;;;;;5083689;28;20266;-71
2023/08/24 04:43:11;;;;;;;12.45;11.10;;;;;;;;;;5077523;28;20297;-69
2023/08/24 04:45:37;;;;;;;13.67;10.40;;;;;;;;;;5090624;28;20032;-69
2023/08/24 04:48:02;;;;;;;14.53;10.10;;;;;;;;;;5090125;28;20376;-68
2023/08/24 04:50:28;;;;;;;14.18;10.23;;;;;;;;;;5071118;28;20333;-68
2023/08/24 04:52:53;;;;;;;12.05;10.85;;;;;;;;;;5071203;28;20483;-69
2023/08/24 04:55:18;;;;;;;12.80;11.63;;;;;;;;;;5071451;28;20031;-68
2023/08/24 04:57:43;;;;;;;13.93;10.77;;;;;;;;;;5071465;28;20277;-68
2023/08/24 05:00:15;;;;;;;11.90;10.70;;;;;;;;;;5071554;28;20047;-68
2023/08/24 05:02:40;;;;;;;11.60;10.38;;;;;;;;;;5071184;28;20044;-68
2023/08/24 05:05:06;;;;;;;12.43;11.13;;;;;;;;;;5071532;28;20021;-69
2023/08/24 05:07:31;;;;;;;13.07;10.73;;;;;;;;;;5084131;28;20356;-68
2023/08/24 05:09:56;;;;;;;13.57;10.38;;;;;;;;;;5088722;28;20024;-68
2023/08/24 05:12:22;;;;;;;15.13;10.20;;;;;;;;;;5089368;28;20379;-68
2023/08/24 05:14:47;;;;;;;12.25;10.52;;;;;;;;;;5077171;28;20278;-68
2023/08/24 05:17:12;;;;;;;13.60;10.53;;;;;;;;;;5088706;28;20034;-68
2023/08/24 05:19:37;;;;;;;9.77;8.77;;;;;;;;;;5076792;28;20793;-68
2023/08/24 05:22:03;;;;;;;13.37;8.87;;;;;;;;;;5087992;28;20687;-68
2023/08/24 05:24:28;;;;;;;9.80;8.80;;;;;;;;;;5084824;28;20293;-69
2023/08/24 05:26:53;;;;;;;12.57;9.13;;;;;;;;;;5086699;28;20270;-68
2023/08/24 05:29:18;;;;;;;11.52;9.50;;;;;;;;;;5089571;28;20408;-67
2023/08/24 05:31:44;;;;;;;10.93;9.83;;;;;;;;;;5090230;28;20023;-67
2023/08/24 05:34:09;;;;;;;12.63;9.82;;;;;;;;;;5082124;28;20767;-68
2023/08/24 05:36:34;;;;;;;11.90;10.23;;;;;;;;;;5091984;28;20016;-69
2023/08/24 05:38:59;;;;;;;11.80;9.77;;;;;;;;;;5091457;28;20067;-68
2023/08/24 05:41:25;;;;;;;10.73;9.43;;;;;;;;;;5091496;28;20267;-68
2023/08/24 05:43:52;;;;;;;10.77;9.68;;;;;;;;;;5073756;28;20270;-69
2023/08/24 05:46:17;;;;;;;11.13;10.02;;;;;;;;;;5073510;28;20386;-69
2023/08/24 05:48:43;;;;;;;11.43;10.23;;;;;;;;;;5073248;28;20028;-69
2023/08/24 05:51:09;;;;;;;10.47;9.47;;;;;;;;;;5073527;28;20026;-69
2023/08/24 05:53:35;;;;;;;10.35;9.25;;;;;;;;;;5073550;28;20312;-69
2023/08/24 05:56:00;;;;;;;11.35;9.18;;;;;;;;;;5087177;28;20035;-69
2023/08/24 05:58:25;;;;;;;9.90;8.48;;;;;;;;;;5093407;28;20020;-69
2023/08/24 06:00:55;;;;;;;13.57;8.80;;;;;;;;;;5079036;28;20040;-69
2023/08/24 06:03:20;;;;;;;9.40;8.13;;;;;;;;;;5074403;28;20055;-69
2023/08/24 06:05:46;;;;;;;10.33;8.40;;;;;;;;;;5080244;28;20052;-69
2023/08/24 06:08:11;;;;;;;10.17;8.47;;;;;;;;;;5074716;28;20366;-69
2023/08/24 06:10:36;;;;;;;11.13;8.95;;;;;;;;;;5073302;28;20294;-69
2023/08/24 06:13:01;;;;;;;9.73;8.73;;;;;;;;;;5073552;28;20066;-69
2023/08/24 06:15:27;;;;;;;10.65;8.95;;;;;;;;;;5085424;28;20817;-69
2023/08/24 06:17:53;;;;;;;14.60;9.15;;;;;;;;;;5085877;28;20020;-69
2023/08/24 06:20:19;;;;;;;10.38;9.18;;;;;;;;;;5085198;28;20035;-69
2023/08/24 06:22:44;;;;;;;10.98;9.88;;;;;;;;;;5092243;28;20083;-69
2023/08/24 06:25:09;;;;;;;12.03;10.73;;;;;;;;;;5092043;28;20080;-69
2023/08/24 06:27:35;;;;;;;12.60;10.10;;;;;;;;;;5079494;28;20328;-69
2023/08/24 06:30:00;;;;;;;12.25;9.75;;;;;;;;;;5090851;28;20799;-69
2023/08/24 06:32:26;;;;;;;11.50;10.30;;;;;;;;;;5091834;28;20020;-69
2023/08/24 06:34:51;;;;;;;12.10;10.30;;;;;;;;;;5084925;28;20437;-70
2023/08/24 06:37:16;;;;;;;10.25;8.93;;;;;;;;;;5078798;28;20366;-70
2023/08/24 06:39:42;;;;;;;11.57;9.47;;;;;;;;;;5084549;28;20031;-70
2023/08/24 06:42:07;;;;;;;9.55;8.43;;;;;;;;;;5091007;28;20274;-69
2023/08/24 06:44:32;;;;;;;9.27;8.30;;;;;;;;;;5080587;28;20021;-69
2023/08/24 06:46:57;;;;;;;11.10;8.17;;;;;;;;;;5075592;28;20283;-69
2023/08/24 06:49:22;;;;;;;12.05;8.20;;;;;;;;;;5076617;28;20306;-69
2023/08/24 06:51:48;;;;;;;9.77;8.30;;;;;;;;;;5075113;28;20032;-69
2023/08/24 06:54:14;;;;;;;12.13;8.40;;;;;;;;;;5074407;28;20273;-69
2023/08/24 06:56:39;;;;;;;13.15;9.27;;;;;;;;;;5076870;28;20266;-69
2023/08/24 06:59:05;;;;;;;11.45;8.63;;;;;;;;;;5080899;28;20017;-69
2023/08/24 07:01:31;;;;;;;11.32;8.73;;;;;;;;;;5074457;28;20024;-69
2023/08/24 07:03:56;;;;;;;11.27;8.07;;;;;;;;;;5074866;28;20071;-69
2023/08/24 07:06:22;;;;;;;15.20;7.32;;;;;;;;;;5074113;28;20052;-70
2023/08/24 07:08:47;;;;;;;8.27;7.07;;;;;;;;;;5076112;28;20495;-69
2023/08/24 07:11:14;;;;;;;12.70;7.53;;;;;;;;;;5072327;28;20409;-70
2023/08/24 07:13:39;;;;;;;8.02;7.15;;;;;;;;;;5084006;28;20776;-70
2023/08/24 07:16:05;;;;;;;10.13;8.43;;;;;;;;;;5074086;28;20031;-70
2023/08/24 07:18:30;;;;;;;13.38;9.27;;;;;;;;;;5072689;28;20637;-70
2023/08/24 07:20:55;;;;;;;9.67;7.87;;;;;;;;;;5077733;28;20028;-70
2023/08/24 07:23:20;;;;;;;9.53;8.40;;;;;;;;;;5092139;28;20282;-70
2023/08/24 07:25:46;;;;;;;9.73;7.33;;;;;;;;;;5074469;28;20278;-70
2023/08/24 07:28:11;;;;;;;9.50;6.50;;;;;;;;;;5064823;28;20763;-70
2023/08/24 07:30:36;;;;;;;10.65;8.40;;;;;;;;;;5091597;28;20683;-70
2023/08/24 07:33:05;;;;;;;8.57;7.37;;;;;;;;;;5081222;28;20478;-70
2023/08/24 07:35:30;;;;;;;7.95;6.68;;;;;;;;;;5075954;28;20306;-70
2023/08/24 07:37:55;;;;;;;9.43;6.88;;;;;;;;;;5081171;28;20036;-70
2023/08/24 07:40:21;;;;;;;9.73;7.28;;;;;;;;;;5085156;28;20035;-70
2023/08/24 07:42:47;;;;;;;7.55;6.68;;;;;;;;;;5072011;28;20020;-69
2023/08/24 07:45:13;;;;;;;9.85;7.28;;;;;;;;;;5089518;28;20028;-69
2023/08/24 07:47:39;;;;;;;9.07;6.25;;;;;;;;;;5079979;28;20040;-70
2023/08/24 07:50:04;;;;;;;7.88;6.35;;;;;;;;;;5073152;28;20070;-70
2023/08/24 07:52:30;;;;;;;8.85;5.95;;;;;;;;;;5080310;28;20048;-70
2023/08/24 07:54:59;;;;;;;8.73;5.82;;;;;;;;;;5084481;28;20020;-70
2023/08/24 07:57:27;;;;;;;7.00;5.75;;;;;;;;;;5078422;28;20138;-70
2023/08/24 07:59:52;;;;;;;8.55;5.93;;;;;;;;;;5072230;28;20031;-70
2023/08/24 08:02:17;;;;;;;8.77;5.88;;;;;;;;;;5072605;28;20119;-70
2023/08/24 08:04:43;;;;;;;7.38;5.57;;;;;;;;;;5079196;28;20051;-69
2023/08/24 08:07:08;;;;;;;6.53;4.43;;;;;;;;;;5072153;28;20028;-68
2023/08/24 08:09:35;;;;;;;10.18;6.07;;;;;;;;;;5077210;28;20277;-69
2023/08/24 08:12:01;;;;;;;7.47;5.22;;;;;;;;;;5079681;28;20103;-71
2023/08/24 08:14:26;;;;;;;8.65;6.05;;;;;;;;;;5071342;28;20103;-72
2023/08/24 08:16:51;;;;;;;8.07;5.38;;;;;;;;;;5071879;28;20029;-71
2023/08/24 08:19:18;;;;;;;9.73;5.37;;;;;;;;;;5071433;28;20027;-70
2023/08/24 08:21:44;;;;;;;6.47;5.43;;;;;;;;;;5086311;28;20274;-69
2023/08/24 08:24:10;;;;;;;7.10;5.03;;;;;;;;;;5072426;28;20023;-70
2023/08/24 08:26:36;;;;;;;7.20;5.57;;;;;;;;;;5065761;28;20024;-70
2023/08/24 08:29:01;;;;;;;7.75;4.90;;;;;;;;;;5084569;28;20032;-70
2023/08/24 08:31:26;;;;;;;7.95;4.63;;;;;;;;;;5084230;28;20468;-69
2023/08/24 08:33:52;;;;;;;5.63;4.05;;;;;;;;;;5078297;28;20027;-70
2023/08/24 08:36:17;;;;;;;7.27;4.87;;;;;;;;;;5082486;28;20036;-69
2023/08/24 08:38:42;;;;;;;7.50;4.30;;;;;;;;;;5077684;28;20350;-69
2023/08/24 08:41:08;;;;;;;6.63;4.50;;;;;;;;;;5084649;28;20359;-70
2023/08/24 08:43:33;;;;;;;6.47;4.03;;;;;;;;;;5071895;28;20103;-69
2023/08/24 08:45:59;;;;;;;6.43;4.23;;;;;;;;;;5071328;28;20108;-69
2023/08/24 08:48:25;;;;;;;6.68;4.05;;;;;;;;;;5071116;28;20274;-69
2023/08/24 08:50:51;;;;;;;7.10;4.05;;;;;;;;;;5071156;28;20040;-70
2023/08/24 08:53:16;;;;;;;5.93;3.88;;;;;;;;;;5074947;28;20423;-70
2023/08/24 08:55:42;;;;;;;8.60;4.40;;;;;;;;;;5090124;28;20059;-69
2023/08/24 08:58:08;;;;;;;7.93;4.60;;;;;;;;;;5089231;28;20013;-69
2023/08/24 09:00:34;;;;;;;8.60;5.10;;;;;;;;;;5089706;28;20118;-69
2023/08/24 09:02:59;;;;;;;6.88;4.53;;;;;;;;;;5091225;28;20016;-69
2023/08/24 09:05:26;;;;;;;6.30;4.63;;;;;;;;;;5092767;28;20426;-70
2023/08/24 09:07:52;;;;;;;8.60;4.38;;;;;;;;;;5091322;28;20023;-69
2023/08/24 09:10:17;;;;;;;7.93;4.75;;;;;;;;;;5093994;28;20036;-69
2023/08/24 09:12:43;;;;;;;6.50;4.60;;;;;;;;;;5093893;28;20016;-69
2023/08/24 09:15:08;;;;;;;6.10;4.20;;;;;;;;;;5087046;28;20274;-69
2023/08/24 09:17:34;;;;;;;8.35;5.60;;;;;;;;;;5082729;28;20024;-69
2023/08/24 09:20:00;;;;;;;7.45;4.75;;;;;;;;;;5094313;28;20078;-69
2023/08/24 09:22:25;;;;;;;6.10;4.57;;;;;;;;;;5089214;28;20104;-69
2023/08/24 09:24:51;;;;;;;15.43;5.57;;;;;;;;;;5081228;28;20095;-69
2023/08/24 09:27:17;;;;;;;4.97;4.30;;;;;;;;;;5085075;28;20059;-69
2023/08/24 09:29:42;;;;;;;8.73;4.85;;;;;;;;;;5082325;28;20031;-69
2023/08/24 09:32:08;;;;;;;5.95;4.55;;;;;;;;;;5078328;28;20020;-69
2023/08/24 09:34:33;;;;;;;6.93;4.63;;;;;;;;;;5079212;28;20466;-69
2023/08/24 09:36:58;;;;;;;6.60;4.50;;;;;;;;;;5077197;28;20060;-69
2023/08/24 09:39:24;;;;;;;8.02;4.28;;;;;;;;;;5082579;28;20274;-69
2023/08/24 09:41:50;;;;;;;5.27;3.50;;;;;;;;;;5077443;28;20048;-69
2023/08/24 09:44:16;;;;;;;8.23;4.63;;;;;;;;;;5087356;28;20286;-69
2023/08/24 09:46:42;;;;;;;6.47;4.45;;;;;;;;;;5084766;28;20024;-69
2023/08/24 09:49:08;;;;;;;13.25;4.50;;;;;;;;;;5088487;28;20016;-69
2023/08/24 09:51:34;;;;;;;5.30;3.70;;;;;;;;;;5083689;28;20025;-69
2023/08/24 09:54:01;;;;;;;5.90;4.13;;;;;;;;;;5080172;28;20088;-69
2023/08/24 09:56:28;;;;;;;5.07;3.35;;;;;;;;;;5076857;28;20409;-69
2023/08/24 09:58:54;;;;;;;5.95;4.00;;;;;;;;;;5075601;28;20036;-69
2023/08/24 10:01:19;;;;;;;7.20;3.70;;;;;;;;;;5077623;28;20020;-68
2023/08/24 10:03:46;;;;;;;5.15;3.45;;;;;;;;;;5075335;28;20028;-68
2023/08/24 10:06:14;;;;;;;8.25;3.88;;;;;;;;;;5074850;28;20025;-69
2023/08/24 10:08:43;;;;;;;4.13;3.20;;;;;;;;;;5075367;28;20035;-69
2023/08/24 10:11:10;;;;;;;5.15;3.72;;;;;;;;;;5092099;28;20428;-69
2023/08/24 10:13:38;;;;;;;8.73;3.30;;;;;;;;;;5090997;28;20048;-70
2023/08/24 10:16:04;;;;;;;5.78;3.53;;;;;;;;;;5076490;28;20035;-68
2023/08/24 10:18:30;;;;;;;5.05;3.33;;;;;;;;;;5078841;28;20020;-69
2023/08/24 10:20:56;;;;;;;4.47;3.17;;;;;;;;;;5083162;28;20097;-68
2023/08/24 10:23:21;;;;;;;5.78;3.47;;;;;;;;;;5084762;28;20032;-68
2023/08/24 10:25:49;;;;;;;6.15;3.97;;;;;;;;;;5076486;28;20425;-69
2023/08/24 10:28:16;;;;;;;5.07;3.20;;;;;;;;;;5080647;28;20032;-69
2023/08/24 10:30:43;;;;;;;5.85;3.90;;;;;;;;;;5083905;28;20033;-69
2023/08/24 10:33:11;;;;;;;5.53;3.85;;;;;;;;;;5082003;28;20059;-69
2023/08/24 10:35:36;;;;;;;6.32;3.90;;;;;;;;;;5078093;28;20036;-69
2023/08/24 10:38:02;;;;;;;7.13;4.03;;;;;;;;;;5082353;28;20059;-69
2023/08/24 10:40:33;;;;;;;5.40;3.88;;;;;;;;;;5075047;28;20033;-69
2023/08/24 10:43:02;;;;;;;5.05;3.67;;;;;;;;;;5082260;28;20024;-69
2023/08/24 10:45:47;;;;;;;5.75;4.00;;;;;;;;;;5040293;28;20029;-67
2023/08/24 10:48:12;;;;;;;7.00;4.38;;;;;;;;;;5039343;28;20035;-67
2023/08/24 10:50:38;;;;;;;6.67;4.33;;;;;;;;;;5044151;28;20028;-68
2023/08/24 10:53:10;;;;;;;8.82;5.28;;;;;;;;;;5034072;28;20403;-68
2023/08/24 10:55:37;;;;;;;7.78;4.72;;;;;;;;;;5044363;28;21052;-67
2023/08/24 10:58:02;;;;;;;8.00;4.57;;;;;;;;;;5033819;28;20016;-67
2023/08/24 11:00:29;;;;;;;7.20;3.95;;;;;;;;;;5069473;28;20113;-68
2023/08/24 11:02:55;;;;;;;7.68;4.30;;;;;;;;;;5085996;28;20031;-68
2023/08/24 11:05:35;;;;;;;7.32;4.80;;;;;;;;;;5086005;28;20024;-68
2023/08/24 11:08:01;;;;;;;6.70;5.20;;;;;;;;;;5077084;28;20509;-68
2023/08/24 11:10:31;;;;;;;8.88;5.57;;;;;;;;;;5075206;28;20024;-68
2023/08/24 11:13:08;;;;;;;7.57;5.65;;;;;;;;;;5076870;28;20035;-69
2023/08/24 11:15:36;;;;;;;9.88;5.68;;;;;;;;;;5084844;28;20024;-69
2023/08/24 11:18:23;;;;;;;9.38;5.60;;;;;;;;;;5089437;28;20059;-66
2023/08/24 11:20:53;;;;;;;10.60;6.40;;;;;;;;;;5077085;28;20028;-67
2023/08/24 11:23:19;;;;;;;9.75;7.28;;;;;;;;;;5081937;28;20016;-68
2023/08/24 11:25:44;;;;;;;12.43;7.07;;;;;;;;;;5084718;28;20360;-68
2023/08/24 11:28:09;;;;;;;12.68;8.27;;;;;;;;;;5088236;28;20020;-67
2023/08/24 11:30:35;;;;;;;12.67;9.27;;;;;;;;;;5079110;28;20039;-67
2023/08/24 11:33:01;;;;;;;10.20;8.52;;;;;;;;;;5080258;28;20278;-67
2023/08/24 11:35:26;;;;;;;10.82;8.80;;;;;;;;;;5086105;28;20078;-67
2023/08/24 11:37:57;;;;;;;12.63;10.20;;;;;;;;;;5076547;28;20036;-67
2023/08/24 11:40:26;;;;;;;15.18;11.30;;;;;;;;;;5085906;28;20032;-66
2023/08/24 11:42:55;;;;;;;13.13;11.48;;;;;;;;;;5075569;28;20225;-67
2023/08/24 11:45:21;;;;;;;13.75;12.35;;;;;;;;;;5077784;28;20020;-68
2023/08/24 11:47:47;;;;;;;13.77;12.55;;;;;;;;;;5079240;28;20031;-67
2023/08/24 11:50:12;;;;;;;15.77;12.35;;;;;;;;;;5087715;28;20424;-67
2023/08/24 11:52:40;;;;;;;15.40;11.80;;;;;;;;;;5080826;28;20021;-67
2023/08/24 11:55:06;;;;;;;13.95;12.55;;;;;;;;;;5080300;28;20036;-67
2023/08/24 11:57:35;;;;;;;15.32;13.80;;;;;;;;;;5083462;28;20027;-67
2023/08/24 12:00:01;;;;;;;16.33;14.15;;;;;;;;;;5084433;28;20020;-67
2023/08/24 12:02:27;;;;;;;15.23;13.65;;;;;;;;;;5077579;28;20024;-67
2023/08/24 12:04:52;;;;;;;15.88;12.82;;;;;;;;;;5084007;28;20521;-68
2023/08/24 12:07:18;;;;;;;17.17;13.00;;;;;;;;;;5079872;28;20051;-68
2023/08/24 12:09:44;;;;;;;15.10;13.52;;;;;;;;;;5079275;28;20400;-68
2023/08/24 12:12:16;;;;;;;15.27;13.00;;;;;;;;;;5079075;28;20505;-67
2023/08/24 12:14:44;;;;;;;15.15;13.23;;;;;;;;;;5075486;28;20029;-68
2023/08/24 12:17:10;;;;;;;15.23;13.70;;;;;;;;;;5072535;28;20031;-68
2023/08/24 12:19:35;;;;;;;14.73;13.05;;;;;;;;;;5078911;28;20038;-68
2023/08/24 12:22:00;;;;;;;14.33;11.47;;;;;;;;;;5077159;28;20029;-68
2023/08/24 12:24:26;;;;;;;12.73;11.50;;;;;;;;;;5078540;28;20418;-68
2023/08/24 12:26:58;;;;;;;14.27;12.33;;;;;;;;;;5086075;28;20296;-68
2023/08/24 12:29:23;;;;;;;12.40;11.13;;;;;;;;;;5082995;28;20821;-68
2023/08/24 12:31:48;;;;;;;12.00;10.20;;;;;;;;;;5082946;28;20044;-68
2023/08/24 12:34:15;;;;;;;11.15;10.07;;;;;;;;;;5074925;28;20278;-68
2023/08/24 12:36:41;;;;;;;13.93;10.85;;;;;;;;;;5076470;28;20034;-68
2023/08/24 12:39:07;;;;;;;12.95;9.95;;;;;;;;;;5078831;28;20035;-68
2023/08/24 12:41:33;;;;;;;10.88;9.27;;;;;;;;;;5083583;28;20031;-68
2023/08/24 12:43:59;;;;;;;12.75;10.45;;;;;;;;;;5074566;28;20073;-68
2023/08/24 12:46:25;;;;;;;10.45;9.35;;;;;;;;;;5077190;28;20375;-68
2023/08/24 12:48:50;;;;;;;11.43;9.93;;;;;;;;;;5084107;28;20084;-68
2023/08/24 12:51:15;;;;;;;18.27;10.13;;;;;;;;;;5076191;28;20032;-68
2023/08/24 12:53:41;;;;;;;10.55;9.50;;;;;;;;;;5083493;28;20027;-69
2023/08/24 12:56:06;;;;;;;12.00;10.13;;;;;;;;;;5083205;28;20153;-68
2023/08/24 12:58:31;;;;;;;14.35;10.98;;;;;;;;;;5072431;28;20529;-68
2023/08/24 13:00:56;;;;;;;15.07;11.07;;;;;;;;;;5076859;28;20020;-68
2023/08/24 13:03:22;;;;;;;11.30;8.98;;;;;;;;;;5078316;28;20365;-68
2023/08/24 13:05:47;;;;;;;9.53;8.50;;;;;;;;;;5074058;28;20024;-68
2023/08/24 13:08:13;;;;;;;13.07;9.00;;;;;;;;;;5080546;28;20266;-69
2023/08/24 13:10:38;;;;;;;12.25;9.13;;;;;;;;;;5082311;28;20394;-68
2023/08/24 13:13:03;;;;;;;10.10;8.75;;;;;;;;;;5078258;28;20051;-69
2023/08/24 13:15:29;;;;;;;12.15;9.07;;;;;;;;;;5076853;28;20728;-68
2023/08/24 13:17:54;;;;;;;14.07;10.48;;;;;;;;;;5071042;28;20016;-69
2023/08/24 13:20:19;;;;;;;12.38;9.40;;;;;;;;;;5073392;28;20025;-68
2023/08/24 13:22:44;;;;;;;11.87;10.63;;;;;;;;;;5070597;28;20038;-68
2023/08/24 13:25:10;;;;;;;12.67;10.07;;;;;;;;;;5070918;28;20321;-68
2023/08/24 13:27:35;;;;;;;13.23;10.10;;;;;;;;;;5079104;28;20777;-68
2023/08/24 13:30:01;;;;;;;10.87;9.77;;;;;;;;;;5085365;28;20482;-68
2023/08/24 13:32:26;;;;;;;12.18;10.88;;;;;;;;;;5073688;28;20834;-67
2023/08/24 13:34:51;;;;;;;15.57;10.77;;;;;;;;;;5073929;28;20032;-68
2023/08/24 13:37:17;;;;;;;12.57;9.52;;;;;;;;;;5070478;28;20024;-68
2023/08/24 13:39:42;;;;;;;12.57;8.93;;;;;;;;;;5079687;28;20443;-68
2023/08/24 13:42:08;;;;;;;13.18;8.40;;;;;;;;;;5076385;28;20506;-68
2023/08/24 13:44:33;;;;;;;10.98;9.05;;;;;;;;;;5076529;28;20510;-68
2023/08/24 13:46:58;;;;;;;10.10;8.03;;;;;;;;;;5081315;28;20066;-68
2023/08/24 13:49:23;;;;;;;12.47;9.50;;;;;;;;;;5084821;28;20345;-68
2023/08/24 13:51:49;;;;;;;9.03;8.17;;;;;;;;;;5079257;28;20323;-68
2023/08/24 13:54:15;;;;;;;12.53;8.23;;;;;;;;;;5077752;28;20628;-68
2023/08/24 13:56:40;;;;;;;11.57;8.73;;;;;;;;;;5079472;28;20353;-68
2023/08/24 13:59:06;;;;;;;8.80;7.03;;;;;;;;;;5087073;28;20420;-68
2023/08/24 14:01:31;;;;;;;10.83;7.90;;;;;;;;;;5076097;28;20546;-68
2023/08/24 14:03:57;;;;;;;10.57;6.23;;;;;;;;;;5085160;28;20288;-67
2023/08/24 14:06:22;;;;;;;9.35;5.28;;;;;;;;;;5080867;28;20478;-67
2023/08/24 14:08:47;;;;;;;8.00;5.88;;;;;;;;;;5086987;28;20059;-67
2023/08/24 14:11:13;;;;;;;8.30;5.03;;;;;;;;;;5074250;28;20064;-68
2023/08/24 14:13:38;;;;;;;6.35;4.13;;;;;;;;;;5079985;28;20290;-68
2023/08/24 14:16:04;;;;;;;10.80;4.53;;;;;;;;;;5083409;28;20036;-68
2023/08/24 14:18:30;;;;;;;7.97;4.28;;;;;;;;;;5083330;28;20016;-68
2023/08/24 14:20:55;;;;;;;9.98;4.00;;;;;;;;;;5085634;28;20017;-68
2023/08/24 14:23:20;;;;;;;5.53;3.23;;;;;;;;;;5082607;28;20033;-68
2023/08/24 14:25:47;;;;;;;10.57;4.00;;;;;;;;;;5082015;28;20287;-67